Time;durP1;ratioP1;P1;durP2;ratioP2;P2;SDS_P1;SDS_P2;PMS_P1;PMS_P2;Temp;Humidity;BMP_temperature;BMP_pressure;BME280_temperature;BME280_humidity;BME280_pressure;Samples;Min_cycle;Max_cycle;Signal;HPM_P1;HPM_P2
2022/05/22 00:00:45;;;;;;;25.30;10.23;;;;;;;13.87;57.44;101983.22;5203359;28;20519;-51
2022/05/22 00:03:18;;;;;;;30.05;9.88;;;;;;;13.97;57.43;102005.31;5195434;28;20437;-47
2022/05/22 00:05:51;;;;;;;24.60;10.20;;;;;;;13.97;57.65;102015.94;5202247;28;20483;-47
2022/05/22 00:08:24;;;;;;;27.05;10.35;;;;;;;13.88;57.68;101995.53;5191196;28;20498;-44
2022/05/22 00:10:56;;;;;;;27.70;9.95;;;;;;;13.76;57.80;101977.09;5199697;28;20472;-44
2022/05/22 00:13:29;;;;;;;24.67;9.68;;;;;;;13.90;57.75;102001.53;5201050;28;20496;-47
2022/05/22 00:18:53;;;;;;;24.23;10.45;;;;;;;13.83;57.93;101988.81;5195385;28;20956;-46
2022/05/22 00:21:25;;;;;;;23.60;10.30;;;;;;;13.86;58.02;101992.19;5201791;28;20837;-45
2022/05/22 00:23:58;;;;;;;26.92;11.38;;;;;;;13.84;58.15;101987.88;5203975;28;20520;-45
2022/05/22 00:26:30;;;;;;;26.88;10.35;;;;;;;13.83;58.14;101980.03;5200242;28;22495;-46
2022/05/22 00:29:03;;;;;;;29.67;10.77;;;;;;;13.76;58.11;101974.44;5203755;28;20418;-45
2022/05/22 00:31:36;;;;;;;32.60;11.00;;;;;;;13.45;58.05;101923.38;5203298;28;20407;-48
2022/05/22 00:34:10;;;;;;;26.95;11.05;;;;;;;13.80;58.35;101975.84;5204606;28;20900;-46
2022/05/22 00:36:42;;;;;;;34.70;11.55;;;;;;;13.79;58.38;101968.84;5196885;28;20655;-46
2022/05/22 00:39:15;;;;;;;31.20;11.43;;;;;;;13.81;58.43;101974.00;5204058;28;20424;-48
2022/05/22 00:41:53;;;;;;;32.17;11.68;;;;;;;13.65;58.65;101939.25;5204644;28;20417;-50
2022/05/22 00:44:26;;;;;;;27.52;10.57;;;;;;;13.84;58.55;101965.75;5197021;28;20840;-49
2022/05/22 00:46:59;;;;;;;30.58;11.43;;;;;;;13.64;58.64;101933.13;5194399;28;20425;-49
2022/05/22 00:49:35;;;;;;;32.22;11.02;;;;;;;13.89;58.75;101962.69;5205792;28;20412;-49
2022/05/22 00:52:12;;;;;;;25.50;10.23;;;;;;;13.77;58.70;101944.25;5202729;28;20405;-45
2022/05/22 00:54:53;;;;;;;30.70;10.55;;;;;;;13.91;58.72;101966.03;5184930;28;27358;-45
2022/05/22 00:57:30;;;;;;;30.02;11.10;;;;;;;13.89;58.79;101952.06;5202491;28;20905;-45
2022/05/22 01:00:08;;;;;;;27.40;9.80;;;;;;;13.92;58.89;101959.75;5204251;28;20480;-45
2022/05/22 01:05:32;;;;;;;31.23;10.95;;;;;;;13.60;58.86;101913.16;5205505;28;23178;-45
2022/05/22 01:08:06;;;;;;;25.75;10.02;;;;;;;13.87;58.92;101959.31;5190671;28;20488;-46
2022/05/22 01:10:43;;;;;;;29.27;9.93;;;;;;;13.82;59.10;101952.63;5200808;28;20429;-50
2022/05/22 01:13:19;;;;;;;28.88;10.25;;;;;;;13.83;59.10;101964.91;5201409;28;21001;-46
2022/05/22 01:15:51;;;;;;;27.88;10.50;;;;;;;13.05;59.05;101836.00;5198955;28;20492;-48
2022/05/22 01:18:24;;;;;;;23.40;8.93;;;;;;;13.71;59.15;101939.50;5203511;28;20445;-46
2022/05/22 01:21:01;;;;;;;26.73;10.15;;;;;;;13.78;59.28;101966.31;5202213;28;20834;-46
2022/05/22 01:23:35;;;;;;;29.83;9.48;;;;;;;13.75;59.35;101963.97;5194966;28;20918;-50
2022/05/22 01:26:07;;;;;;;29.85;10.82;;;;;;;13.74;59.28;101971.09;5205353;28;20590;-47
2022/05/22 01:28:40;;;;;;;26.83;9.35;;;;;;;13.01;59.36;101877.03;5195707;28;20852;-40
2022/05/22 01:31:16;;;;;;;26.20;9.38;;;;;;;13.71;59.52;101975.84;5201050;28;20421;-45
2022/05/22 01:33:49;;;;;;;27.88;10.05;;;;;;;13.69;59.47;101962.75;5201138;28;20423;-45
2022/05/22 01:36:21;;;;;;;26.05;9.63;;;;;;;13.60;59.61;101945.84;5200368;28;20854;-45
2022/05/22 01:38:55;;;;;;;27.20;11.00;;;;;;;13.60;59.58;101960.94;5203912;28;20417;-44
2022/05/22 01:41:28;;;;;;;33.58;10.82;;;;;;;13.48;59.64;101962.91;5201353;28;20437;-46
2022/05/22 01:44:02;;;;;;;29.20;11.38;;;;;;;13.36;59.88;101925.06;5198744;28;20421;-47
2022/05/22 01:46:35;;;;;;;28.13;11.98;;;;;;;13.53;59.90;101951.84;5176865;28;20907;-46
2022/05/22 01:49:08;;;;;;;30.98;11.50;;;;;;;12.83;59.82;101864.47;5198141;28;20750;-46
2022/05/22 01:51:43;;;;;;;26.00;10.45;;;;;;;13.33;60.08;101929.81;5200176;28;20747;-47
2022/05/22 01:54:17;;;;;;;30.65;10.48;;;;;;;13.45;60.08;101933.16;5188233;28;20930;-44
2022/05/22 01:56:49;;;;;;;24.85;10.48;;;;;;;13.36;60.13;101922.41;5187736;28;20544;-46
2022/05/22 01:59:22;;;;;;;36.03;12.80;;;;;;;13.36;60.11;101917.09;5200222;28;20781;-45
2022/05/22 02:01:54;;;;;;;28.23;12.02;;;;;;;13.36;60.19;101935.66;5204759;28;20421;-44
2022/05/22 02:04:27;;;;;;;26.15;10.48;;;;;;;13.20;60.06;101908.84;5202483;28;20425;-46
2022/05/22 02:09:51;;;;;;;30.80;12.77;;;;;;;13.27;60.19;101928.56;5200641;28;20413;-46
2022/05/22 02:12:23;;;;;;;31.23;12.27;;;;;;;13.24;60.20;101923.50;5205005;28;20856;-46
2022/05/22 02:14:56;;;;;;;28.52;11.75;;;;;;;13.24;60.37;101931.47;5207108;28;20583;-52
2022/05/22 02:17:28;;;;;;;28.77;11.87;;;;;;;13.23;60.41;101937.75;5206841;28;20492;-46
2022/05/22 02:20:01;;;;;;;24.20;10.73;;;;;;;13.06;60.43;101911.91;5178713;28;20461;-44
2022/05/22 02:22:33;;;;;;;32.92;12.30;;;;;;;12.29;60.39;101796.91;5205226;28;20419;-50
2022/05/22 02:25:09;;;;;;;36.20;12.45;;;;;;;12.91;60.57;101898.22;5207222;28;20488;-46
2022/05/22 02:27:42;;;;;;;25.13;12.47;;;;;;;12.95;60.66;101909.41;5202523;28;20409;-46
2022/05/22 02:30:20;;;;;;;38.30;13.55;;;;;;;13.10;60.66;101934.50;5204955;28;20934;-45
2022/05/22 02:32:53;;;;;;;30.17;13.00;;;;;;;12.93;60.72;101891.81;5207487;28;20434;-44
2022/05/22 02:35:26;;;;;;;31.23;12.57;;;;;;;13.04;60.82;101909.41;5207621;28;20444;-47
2022/05/22 02:37:59;;;;;;;31.27;12.68;;;;;;;13.02;60.86;101905.22;5206661;28;20429;-46
2022/05/22 02:40:35;;;;;;;44.85;13.40;;;;;;;12.89;60.89;101895.72;5204589;28;20520;-50
2022/05/22 02:43:08;;;;;;;31.47;12.93;;;;;;;12.95;61.05;101904.13;5199828;28;20475;-47
2022/05/22 02:45:41;;;;;;;31.33;13.13;;;;;;;12.81;60.99;101882.31;5202759;28;20470;-46
2022/05/22 02:48:14;;;;;;;34.38;14.55;;;;;;;12.68;61.03;101860.56;5204895;28;20445;-47
2022/05/22 02:50:47;;;;;;;35.95;14.05;;;;;;;12.83;61.02;101901.59;5205353;28;20813;-52
2022/05/22 02:53:19;;;;;;;29.85;12.32;;;;;;;12.81;61.02;101906.19;5206286;28;20431;-44
2022/05/22 02:55:53;;;;;;;35.00;12.88;;;;;;;12.83;61.26;101901.59;5207999;28;20911;-46
2022/05/22 02:58:25;;;;;;;32.28;13.20;;;;;;;12.83;61.37;101896.28;5205798;28;20508;-44
2022/05/22 03:01:00;;;;;;;33.08;13.07;;;;;;;12.81;61.38;101903.53;5207100;28;20439;-45
2022/05/22 03:03:34;;;;;;;33.60;12.73;;;;;;;12.74;61.63;101886.50;5209092;28;20413;-45
2022/05/22 03:08:57;;;;;;;30.98;12.13;;;;;;;12.78;61.64;101887.91;5203168;28;20832;-45
2022/05/22 03:11:30;;;;;;;28.75;11.48;;;;;;;12.73;61.55;101895.44;5201735;28;20504;-46
2022/05/22 03:14:03;;;;;;;32.72;13.20;;;;;;;12.73;61.53;101889.28;5206383;28;20410;-46
2022/05/22 03:16:36;;;;;;;28.58;12.77;;;;;;;12.74;61.63;101889.16;5204829;28;20437;-46
2022/05/22 03:19:08;;;;;;;29.08;12.32;;;;;;;12.71;61.73;101886.78;5207051;28;20753;-46
2022/05/22 03:21:41;;;;;;;32.05;12.43;;;;;;;12.64;61.54;101880.38;5201138;28;20393;-45
2022/05/22 03:24:13;;;;;;;23.02;11.65;;;;;;;12.68;61.80;101889.72;5208235;28;20429;-46
2022/05/22 03:26:47;;;;;;;30.80;12.55;;;;;;;12.70;61.64;101890.44;5203958;28;20421;-47
2022/05/22 03:29:23;;;;;;;30.52;13.00;;;;;;;12.72;61.94;101893.75;5205397;28;20413;-46
2022/05/22 03:31:56;;;;;;;31.23;12.68;;;;;;;12.69;61.92;101889.56;5188481;28;20425;-48
2022/05/22 03:34:28;;;;;;;26.07;11.50;;;;;;;12.31;61.92;101832.06;5195943;28;20497;-46
2022/05/22 03:37:01;;;;;;;29.88;11.77;;;;;;;12.51;61.99;101854.13;5206877;28;20441;-46
2022/05/22 03:39:34;;;;;;;27.25;11.65;;;;;;;12.53;62.00;101861.94;5204352;28;20451;-44
2022/05/22 03:42:10;;;;;;;26.63;12.45;;;;;;;12.48;61.97;101858.84;5205228;28;20414;-48
2022/05/22 03:44:45;;;;;;;27.40;12.07;;;;;;;12.63;62.02;101889.28;5202568;28;20424;-48
2022/05/22 03:47:17;;;;;;;33.00;12.05;;;;;;;12.58;62.11;101870.31;5205065;28;20510;-44
2022/05/22 03:49:50;;;;;;;27.75;12.18;;;;;;;12.57;62.31;101864.16;5203761;28;20603;-43
2022/05/22 03:52:22;;;;;;;27.40;12.75;;;;;;;12.61;62.03;101868.22;5207730;28;20416;-45
2022/05/22 03:54:55;;;;;;;31.67;13.13;;;;;;;12.55;62.23;101844.09;5206168;28;20779;-48
2022/05/22 03:57:29;;;;;;;28.45;12.85;;;;;;;12.46;62.23;101837.81;5204871;28;20400;-45
2022/05/22 04:00:03;;;;;;;26.45;12.30;;;;;;;12.62;62.15;101858.47;5205614;28;20488;-45
2022/05/22 04:02:36;;;;;;;28.98;13.13;;;;;;;12.57;62.22;101842.13;5204516;28;20409;-44
2022/05/22 04:05:10;;;;;;;28.92;12.57;;;;;;;12.57;62.28;101850.06;5205922;28;20409;-44
2022/05/22 04:07:46;;;;;;;34.60;14.73;;;;;;;12.65;62.33;101855.53;5202783;28;20501;-45
2022/05/22 04:10:20;;;;;;;28.13;12.30;;;;;;;12.66;62.45;101857.19;5204624;28;20483;-45
2022/05/22 04:12:53;;;;;;;28.80;11.60;;;;;;;12.68;62.45;101856.09;5204684;28;20584;-42
2022/05/22 04:15:26;;;;;;;28.00;11.82;;;;;;;12.70;62.32;101858.63;5207300;28;20526;-46
2022/05/22 04:17:59;;;;;;;26.07;11.53;;;;;;;12.72;62.44;101863.75;5206143;28;20965;-45
2022/05/22 04:20:31;;;;;;;27.52;11.07;;;;;;;12.73;62.51;101861.00;5205463;28;20702;-47
2022/05/22 04:25:55;;;;;;;18.65;10.88;;;;;;;12.78;62.56;101858.75;5204469;28;20766;-47
2022/05/22 04:28:30;;;;;;;28.00;11.52;;;;;;;12.82;62.52;101846.91;5207409;28;20978;-46
2022/05/22 04:31:03;;;;;;;22.50;11.77;;;;;;;12.60;62.57;101810.88;5205479;28;20433;-46
2022/05/22 04:33:36;;;;;;;30.65;12.13;;;;;;;12.29;62.53;101754.53;5196008;28;20421;-44
2022/05/22 04:36:09;;;;;;;26.80;12.18;;;;;;;12.97;62.61;101843.81;5203025;28;20482;-45
2022/05/22 04:38:41;;;;;;;24.05;11.52;;;;;;;13.03;62.57;101845.91;5196229;28;20434;-46
2022/05/22 04:41:13;;;;;;;28.45;11.55;;;;;;;13.07;62.73;101844.66;5204586;28;20513;-46
2022/05/22 04:43:47;;;;;;;23.38;10.82;;;;;;;13.12;62.71;101847.69;5204899;28;20472;-46
2022/05/22 04:46:20;;;;;;;23.90;11.32;;;;;;;13.18;62.78;101841.81;5208243;28;20418;-45
2022/05/22 04:48:52;;;;;;;24.77;10.30;;;;;;;13.23;62.67;101844.91;5206519;28;20433;-45
2022/05/22 04:51:25;;;;;;;26.88;11.70;;;;;;;13.26;62.44;101836.69;5203163;28;20426;-48
2022/05/22 04:53:59;;;;;;;21.37;10.93;;;;;;;13.35;62.72;101837.66;5204951;28;20547;-45
2022/05/22 04:56:32;;;;;;;26.27;11.18;;;;;;;13.43;62.78;101839.56;5206844;28;20492;-48
2022/05/22 04:59:06;;;;;;;22.20;11.00;;;;;;;13.47;62.70;101840.94;5205300;28;20441;-50
2022/05/22 05:01:38;;;;;;;26.05;10.90;;;;;;;13.48;62.69;101832.88;5203418;28;20499;-45
2022/05/22 05:04:11;;;;;;;23.77;11.02;;;;;;;13.64;62.80;101842.88;5201707;28;20436;-44
2022/05/22 05:06:44;;;;;;;24.42;10.38;;;;;;;13.66;62.63;101835.59;5203358;28;20490;-46
2022/05/22 05:09:16;;;;;;;21.13;11.00;;;;;;;13.76;62.66;101840.88;5201940;28;20525;-47
2022/05/22 05:11:49;;;;;;;25.77;11.07;;;;;;;13.94;62.53;101848.91;5204053;28;20420;-46
2022/05/22 05:14:22;;;;;;;26.65;9.75;;;;;;;14.00;62.53;101841.19;5203784;28;20476;-46
2022/05/22 05:16:55;;;;;;;23.33;10.40;;;;;;;14.26;62.32;101835.97;5198777;28;20414;-47
2022/05/22 05:19:28;;;;;;;20.23;10.10;;;;;;;15.45;61.28;101831.22;5203011;28;20430;-49
2022/05/22 05:22:00;;;;;;;26.77;9.80;;;;;;;17.12;59.90;101857.16;5204496;28;20428;-46
2022/05/22 05:24:33;;;;;;;23.15;8.90;;;;;;;18.70;58.43;101840.19;5204867;28;20408;-49
2022/05/22 05:27:06;;;;;;;23.33;7.88;;;;;;;20.11;57.34;101831.41;5205883;28;20425;-48
2022/05/22 05:29:40;;;;;;;23.08;7.53;;;;;;;21.35;55.70;101820.34;5204957;28;20524;-49
2022/05/22 05:32:12;;;;;;;20.73;7.60;;;;;;;22.66;54.38;101836.41;5202428;28;20503;-48
2022/05/22 05:34:47;;;;;;;18.65;6.03;;;;;;;23.68;53.02;101849.38;5203500;28;20545;-51
2022/05/22 05:37:19;;;;;;;15.10;4.45;;;;;;;24.43;51.77;101837.25;5202370;28;20489;-49
2022/05/22 05:39:53;;;;;;;16.48;5.55;;;;;;;25.28;50.13;101829.53;5201626;28;20420;-49
2022/05/22 05:42:32;;;;;;;13.20;4.90;;;;;;;26.11;48.90;101845.25;5207107;28;20829;-48
2022/05/22 05:45:09;;;;;;;18.67;5.43;;;;;;;26.85;47.39;101850.41;5203788;28;20563;-54
2022/05/22 05:47:45;;;;;;;16.58;4.68;;;;;;;27.33;46.16;101827.69;5183719;28;20506;-52
2022/05/22 05:50:21;;;;;;;15.00;4.72;;;;;;;28.06;45.01;101834.38;5187622;28;20507;-52
2022/05/22 05:52:56;;;;;;;12.68;5.03;;;;;;;28.66;43.94;101838.47;5205068;28;20424;-53
2022/05/22 05:55:30;;;;;;;13.60;5.40;;;;;;;29.05;43.10;101833.09;5191496;28;20512;-49
2022/05/22 05:58:03;;;;;;;15.00;5.38;;;;;;;29.42;42.37;101841.50;5203851;28;20413;-53
2022/05/22 06:00:37;;;;;;;17.90;4.97;;;;;;;29.93;41.07;101825.03;5208202;28;20892;-51
2022/05/22 06:03:10;;;;;;;11.18;4.07;;;;;;;30.53;40.27;101841.16;5202058;28;20418;-53
2022/05/22 06:05:42;;;;;;;10.95;3.28;;;;;;;30.83;39.51;101844.44;5201592;28;20484;-49
2022/05/22 06:08:14;;;;;;;16.50;4.50;;;;;;;31.01;39.07;101835.84;5200282;28;20925;-52
2022/05/22 06:10:47;;;;;;;9.68;2.78;;;;;;;31.35;38.03;101811.78;5202191;28;20494;-48
2022/05/22 06:13:19;;;;;;;10.60;3.05;;;;;;;31.66;37.26;101825.56;5201300;28;20934;-52
2022/05/22 06:15:53;;;;;;;12.13;3.38;;;;;;;31.69;36.84;101836.75;5204611;28;20482;-52
2022/05/22 06:18:26;;;;;;;11.15;2.75;;;;;;;31.78;36.54;101817.94;5203978;28;20421;-51
2022/05/22 06:20:59;;;;;;;10.55;2.97;;;;;;;32.17;35.53;101822.16;5203851;28;20861;-54
2022/05/22 06:23:31;;;;;;;8.85;2.60;;;;;;;32.69;34.71;101829.31;5198665;28;20859;-53
2022/05/22 06:26:05;;;;;;;7.32;2.38;;;;;;;32.92;34.12;101823.28;5205842;28;20440;-50
2022/05/22 06:28:39;;;;;;;9.52;2.58;;;;;;;33.13;33.73;101817.75;5197431;28;20762;-52
2022/05/22 06:31:14;;;;;;;7.03;2.30;;;;;;;33.42;33.41;101824.25;5200311;28;20503;-52
2022/05/22 06:33:47;;;;;;;7.32;2.22;;;;;;;33.71;32.65;101831.81;5194368;28;20887;-51
2022/05/22 06:36:19;;;;;;;6.17;2.17;;;;;;;33.50;32.45;101811.91;5195075;28;20417;-52
2022/05/22 06:41:42;;;;;;;8.23;2.00;;;;;;;33.47;31.73;101777.66;5194621;28;20422;-51
2022/05/22 06:44:15;;;;;;;6.90;2.73;;;;;;;33.86;31.48;101818.03;5193996;28;20399;-53
2022/05/22 06:46:48;;;;;;;9.30;2.35;;;;;;;33.84;31.53;101828.44;5198573;28;20413;-48
2022/05/22 06:49:24;;;;;;;8.98;2.78;;;;;;;33.91;30.93;101815.28;5201955;28;20433;-52
2022/05/22 06:51:56;;;;;;;7.97;2.30;;;;;;;33.94;30.99;101822.06;5198907;28;20433;-52
2022/05/22 06:54:31;;;;;;;10.43;2.42;;;;;;;33.87;30.89;101827.88;5201931;28;20419;-53
2022/05/22 06:57:05;;;;;;;10.90;2.53;;;;;;;33.89;30.77;101833.91;5183883;28;20969;-52
2022/05/22 06:59:37;;;;;;;11.50;2.60;;;;;;;34.02;30.53;101837.97;5204262;28;20473;-53
2022/05/22 07:02:12;;;;;;;11.30;2.63;;;;;;;34.07;30.32;101807.78;5206808;28;20476;-53
2022/05/22 07:04:44;;;;;;;13.93;3.25;;;;;;;34.37;29.71;101822.34;5170887;28;20422;-51
2022/05/22 07:07:17;;;;;;;12.02;2.55;;;;;;;34.31;29.62;101839.94;5180478;28;20530;-50
2022/05/22 07:09:52;;;;;;;11.10;2.85;;;;;;;34.12;29.95;101831.59;5191346;28;20440;-53
2022/05/22 07:12:25;;;;;;;9.87;2.80;;;;;;;34.10;29.86;101823.66;5198393;28;20520;-49
2022/05/22 07:14:58;;;;;;;9.85;2.90;;;;;;;34.14;29.67;101811.03;5178701;28;20489;-52
2022/05/22 07:17:33;;;;;;;8.13;2.25;;;;;;;34.08;29.49;101794.91;5197308;28;22212;-53
2022/05/22 07:20:09;;;;;;;11.82;2.60;;;;;;;34.18;29.63;101834.00;5207225;28;20490;-52
2022/05/22 07:22:41;;;;;;;7.63;2.55;;;;;;;33.71;29.66;101838.09;5186276;28;20423;-51
2022/05/22 07:25:14;;;;;;;12.75;2.88;;;;;;;33.15;30.14;101830.09;5192412;28;20920;-51
2022/05/22 07:27:46;;;;;;;9.70;2.55;;;;;;;32.90;30.48;101828.19;5182803;28;20423;-47
2022/05/22 07:30:19;;;;;;;10.43;3.20;;;;;;;32.73;30.46;101816.72;5204791;28;20418;-49
2022/05/22 07:32:56;;;;;;;9.80;2.87;;;;;;;32.32;30.37;101751.91;5207775;28;20980;-48
2022/05/22 07:35:30;;;;;;;8.68;2.70;;;;;;;32.59;30.26;101814.53;5189695;28;20416;-50
2022/05/22 07:38:03;;;;;;;11.02;2.75;;;;;;;32.40;30.61;101829.03;5209086;28;20413;-50
2022/05/22 07:40:35;;;;;;;7.17;2.10;;;;;;;31.86;31.05;101802.94;5206397;28;20513;-51
2022/05/22 07:43:10;;;;;;;9.15;2.67;;;;;;;31.58;31.02;101810.50;5206195;28;20425;-53
2022/05/22 07:45:43;;;;;;;9.00;2.92;;;;;;;31.53;31.31;101837.78;5203731;28;20476;-52
2022/05/22 07:48:17;;;;;;;9.32;2.70;;;;;;;31.32;31.52;101822.38;5204981;28;20508;-51
2022/05/22 07:50:55;;;;;;;16.20;3.08;;;;;;;31.17;31.53;101818.47;5206785;28;20414;-49
2022/05/22 07:53:29;;;;;;;11.82;3.28;;;;;;;30.69;31.45;101757.59;5206311;28;20506;-49
2022/05/22 07:56:02;;;;;;;12.60;3.05;;;;;;;31.09;31.58;101815.41;5206489;28;20449;-51
2022/05/22 07:58:36;;;;;;;8.18;2.65;;;;;;;30.94;31.67;101813.41;5195792;28;20421;-51
2022/05/22 08:01:09;;;;;;;6.30;2.93;;;;;;;30.77;31.66;101802.63;5206117;28;21632;-50
2022/05/22 08:03:43;;;;;;;9.23;3.10;;;;;;;30.77;31.75;101819.84;5190734;28;20496;-46
2022/05/22 08:06:16;;;;;;;8.75;3.13;;;;;;;30.53;31.91;101810.34;5200950;28;20415;-52
2022/05/22 08:08:48;;;;;;;10.13;2.23;;;;;;;30.44;31.76;101801.00;5206738;28;20497;-51
2022/05/22 08:11:20;;;;;;;10.02;2.67;;;;;;;30.30;31.81;101798.72;5196918;28;20433;-49
2022/05/22 08:13:53;;;;;;;14.50;3.17;;;;;;;30.24;32.05;101805.22;5206801;28;20467;-49
2022/05/22 08:16:25;;;;;;;11.00;2.75;;;;;;;29.97;32.21;101807.91;5182584;28;20544;-51
2022/05/22 08:19:01;;;;;;;10.57;3.30;;;;;;;29.71;32.53;101800.53;5206839;28;20507;-50
2022/05/22 08:21:35;;;;;;;8.60;2.30;;;;;;;29.38;32.71;101786.78;5209460;28;20504;-49
2022/05/22 08:24:08;;;;;;;8.48;2.40;;;;;;;29.22;32.93;101798.53;5208230;28;20444;-50
2022/05/22 08:26:40;;;;;;;7.20;2.40;;;;;;;29.23;32.68;101793.91;5203764;28;20506;-51
2022/05/22 08:29:13;;;;;;;6.45;2.42;;;;;;;29.29;32.47;101777.41;5202951;28;20417;-48
2022/05/22 08:31:45;;;;;;;8.73;2.53;;;;;;;29.25;32.47;101764.56;5199726;28;20479;-51
2022/05/22 08:34:19;;;;;;;7.70;2.08;;;;;;;29.24;32.42;101776.53;5202013;28;20492;-53
2022/05/22 08:36:52;;;;;;;6.88;1.88;;;;;;;28.93;32.63;101774.19;5207049;28;20511;-50
2022/05/22 08:39:24;;;;;;;10.18;2.25;;;;;;;28.78;32.61;101771.22;5206000;28;20406;-51
2022/05/22 08:42:00;;;;;;;8.77;2.22;;;;;;;28.43;32.76;101731.56;5204300;28;20519;-50
2022/05/22 08:44:34;;;;;;;6.40;2.53;;;;;;;28.47;32.68;101759.88;5207147;28;20464;-54
2022/05/22 08:47:14;;;;;;;8.82;2.78;;;;;;;28.54;32.74;101758.91;5204141;28;20405;-52
2022/05/22 08:49:54;;;;;;;7.40;2.50;;;;;;;28.00;32.71;101705.84;5204132;28;20492;-51
2022/05/22 08:52:32;;;;;;;8.00;2.30;;;;;;;27.86;33.01;101758.78;5200062;28;20415;-53
2022/05/22 08:55:09;;;;;;;6.80;2.35;;;;;;;27.74;33.09;101763.41;5202862;28;20519;-51
2022/05/22 09:00:42;;;;;;;11.57;3.40;;;;;;;27.36;33.04;101738.53;5193531;28;20449;-50
2022/05/22 09:03:24;;;;;;;8.85;2.80;;;;;;;26.67;33.29;101686.88;5170589;28;20494;-52
2022/05/22 09:06:04;;;;;;;13.98;2.75;;;;;;;27.26;33.21;101760.03;5192089;28;20412;-51
2022/05/22 09:08:43;;;;;;;8.20;2.35;;;;;;;27.30;33.08;101744.09;5194310;28;20423;-52
2022/05/22 09:11:25;;;;;;;8.85;2.45;;;;;;;27.30;32.86;101739.47;5201962;28;20417;-50
2022/05/22 09:14:05;;;;;;;12.13;2.57;;;;;;;27.05;33.14;101737.03;5203093;28;20544;-52
2022/05/22 09:16:44;;;;;;;7.65;2.38;;;;;;;26.77;33.36;101728.81;5200216;28;20949;-56
2022/05/22 09:19:23;;;;;;;8.50;2.42;;;;;;;26.72;33.38;101728.69;5200159;28;20448;-53
2022/05/22 09:22:07;;;;;;;11.30;2.53;;;;;;;26.86;33.18;101721.97;5198687;28;20802;-50
2022/05/22 09:24:49;;;;;;;8.88;2.67;;;;;;;26.98;33.01;101720.06;5200766;28;20448;-50
2022/05/22 09:27:29;;;;;;;9.32;2.47;;;;;;;27.07;32.59;101696.94;5199963;28;20496;-51
2022/05/22 09:30:07;;;;;;;10.23;2.67;;;;;;;26.78;32.34;101670.81;5202856;28;20417;-52
2022/05/22 09:32:58;;;;;;;5.70;2.30;;;;;;;27.07;32.73;101696.94;5204484;28;20436;-52
2022/05/22 09:35:44;;;;;;;5.95;2.55;;;;;;;26.94;32.68;101697.19;5196616;28;20467;-50
2022/05/22 09:38:35;;;;;;;9.23;2.28;;;;;;;27.07;32.52;101701.56;5200507;28;20478;-53
2022/05/22 09:41:21;;;;;;;9.18;2.47;;;;;;;26.82;32.70;101690.97;5179755;28;20411;-48
2022/05/22 09:44:49;;;;;;;13.95;2.95;;;;;;;26.30;33.26;101707.09;5197023;28;20417;-50
2022/05/22 09:47:57;;;;;;;6.78;2.65;;;;;;;26.05;33.25;101697.28;5191406;28;20503;-49
2022/05/22 09:50:35;;;;;;;9.90;2.80;;;;;;;26.09;33.29;101701.16;5195135;28;20475;-55
2022/05/22 09:53:15;;;;;;;7.38;2.28;;;;;;;26.19;33.03;101692.44;5203546;28;21943;-49
2022/05/22 09:55:50;;;;;;;9.80;2.47;;;;;;;26.31;32.86;101687.88;5200917;28;20424;-48
2022/05/22 09:59:03;;;;;;;9.63;1.95;;;;;;;26.32;32.70;101672.44;5201100;28;20421;-51
2022/05/22 10:01:40;;;;;;;6.22;2.03;;;;;;;26.68;32.45;101699.34;5158752;28;20429;-49
2022/05/22 10:04:34;;;;;;;7.20;2.20;;;;;;;26.85;32.16;101671.50;5197637;28;20639;-51
2022/05/22 10:07:17;;;;;;;8.32;1.92;;;;;;;26.96;31.76;101678.81;5198686;28;20504;-49
2022/05/22 10:10:01;;;;;;;9.68;2.20;;;;;;;26.90;31.65;101668.91;5181589;28;20829;-51
2022/05/22 10:12:49;;;;;;;9.35;2.63;;;;;;;26.96;31.78;101667.97;5182162;28;20483;-46
2022/05/22 10:15:39;;;;;;;6.25;2.35;;;;;;;27.08;31.61;101687.75;5202125;28;20438;-47
2022/05/22 10:18:40;;;;;;;9.05;2.90;;;;;;;26.99;31.56;101667.50;5202243;28;20405;-48
2022/05/22 10:21:22;;;;;;;7.00;2.20;;;;;;;27.07;31.43;101677.16;5193300;28;20492;-49
2022/05/22 10:24:15;;;;;;;8.77;2.30;;;;;;;27.12;31.19;101659.06;5192911;28;20409;-49
2022/05/22 10:27:11;;;;;;;7.90;2.83;;;;;;;27.31;30.95;101680.63;5190803;28;20773;-44
2022/05/22 10:29:52;;;;;;;7.40;2.50;;;;;;;27.28;30.90;101670.25;5204382;28;21083;-48
2022/05/22 10:32:31;;;;;;;8.02;2.30;;;;;;;27.28;30.79;101667.53;5205014;28;20425;-49
2022/05/22 10:35:10;;;;;;;10.77;2.20;;;;;;;27.27;30.63;101652.34;5209192;28;20502;-48
2022/05/22 10:37:51;;;;;;;7.38;2.28;;;;;;;27.29;30.63;101650.22;5209781;28;20413;-51
2022/05/22 10:40:26;;;;;;;6.43;2.10;;;;;;;27.27;30.67;101644.22;5205028;28;20492;-51
2022/05/22 10:42:58;;;;;;;7.03;1.97;;;;;;;27.37;30.45;101641.69;5209668;28;20732;-49
2022/05/22 10:45:36;;;;;;;8.73;2.50;;;;;;;27.11;30.61;101622.19;5205254;28;20924;-50
2022/05/22 10:48:11;;;;;;;9.63;2.25;;;;;;;27.03;30.71;101651.56;5189126;28;20445;-51
2022/05/22 10:50:54;;;;;;;9.48;2.28;;;;;;;26.92;30.86;101655.16;5196770;28;20490;-51
2022/05/22 10:53:35;;;;;;;9.25;2.53;;;;;;;26.83;30.99;101651.97;5203008;28;20435;-52
2022/05/22 10:56:16;;;;;;;7.50;2.30;;;;;;;26.72;31.33;101645.50;5204365;28;21212;-48
2022/05/22 10:58:55;;;;;;;8.82;2.50;;;;;;;26.47;31.34;101637.59;5205412;28;20430;-52
2022/05/22 11:01:35;;;;;;;7.05;2.28;;;;;;;26.05;31.63;101637.72;5207484;28;20444;-50
2022/05/22 11:04:10;;;;;;;8.48;1.92;;;;;;;25.74;31.83;101642.31;5206876;28;28294;-51
2022/05/22 11:06:55;;;;;;;9.93;2.55;;;;;;;25.35;32.36;101624.78;5202090;28;20789;-50
2022/05/22 11:09:33;;;;;;;6.10;2.07;;;;;;;25.38;32.04;101639.72;5201463;28;20426;-49
2022/05/22 11:12:07;;;;;;;5.50;1.95;;;;;;;25.50;32.09;101632.47;5196462;28;20524;-51
2022/05/22 11:14:40;;;;;;;6.80;2.05;;;;;;;25.53;31.91;101613.91;5200535;28;20586;-51
2022/05/22 11:17:16;;;;;;;8.07;2.08;;;;;;;25.90;31.85;101626.50;5196099;28;20417;-47
2022/05/22 11:19:54;;;;;;;8.35;2.10;;;;;;;26.07;31.51;101600.38;5195396;28;20812;-50
2022/05/22 11:22:36;;;;;;;8.25;1.75;;;;;;;26.39;31.21;101609.00;5200376;28;20968;-48
2022/05/22 11:25:23;;;;;;;5.67;1.80;;;;;;;26.59;30.92;101608.66;5197147;28;20475;-52
2022/05/22 11:28:20;;;;;;;9.20;2.28;;;;;;;26.16;30.95;101515.06;5192382;28;20425;-52
2022/05/22 11:31:02;;;;;;;6.75;1.77;;;;;;;26.77;30.71;101599.53;5183648;28;21037;-49
2022/05/22 11:33:47;;;;;;;7.18;2.17;;;;;;;26.85;30.58;101590.19;5198340;28;21035;-52
2022/05/22 11:36:37;;;;;;;5.95;1.85;;;;;;;27.06;30.25;101584.13;5193959;28;20471;-50
2022/05/22 11:39:37;;;;;;;5.35;1.70;;;;;;;27.40;29.97;101592.38;5185885;28;22468;-51
2022/05/22 11:42:16;;;;;;;6.57;2.60;;;;;;;27.38;29.86;101567.41;5196960;28;20453;-47
2022/05/22 11:45:12;;;;;;;8.68;2.00;;;;;;;27.26;29.95;101559.31;5194000;28;20416;-51
2022/05/22 11:48:11;;;;;;;5.70;1.63;;;;;;;27.31;29.72;101572.13;5187867;28;20451;-46
2022/05/22 11:50:55;;;;;;;5.80;1.75;;;;;;;27.32;29.64;101568.38;5198171;28;20877;-48
2022/05/22 11:54:08;;;;;;;12.18;2.33;;;;;;;27.47;29.43;101574.06;5197529;28;20484;-49
2022/05/22 11:56:54;;;;;;;6.25;1.70;;;;;;;27.47;29.54;101571.38;5164208;28;20850;-49
2022/05/22 11:59:49;;;;;;;7.23;1.97;;;;;;;27.49;29.40;101565.69;5194338;28;20507;-50
2022/05/22 12:02:41;;;;;;;6.25;2.22;;;;;;;27.59;29.37;101552.28;5195464;28;20417;-48
2022/05/22 12:05:44;;;;;;;9.88;2.30;;;;;;;27.63;29.34;101553.44;5198095;28;20429;-48
2022/05/22 12:08:39;;;;;;;5.73;2.10;;;;;;;27.78;28.96;101539.31;5196150;28;20483;-51
2022/05/22 12:11:19;;;;;;;7.33;2.13;;;;;;;27.93;28.85;101544.97;5203594;28;20466;-49
2022/05/22 12:13:59;;;;;;;6.95;2.28;;;;;;;27.71;29.01;101544.88;5197321;28;20437;-52
2022/05/22 12:16:38;;;;;;;7.70;2.45;;;;;;;27.64;29.37;101559.69;5203358;28;20433;-50
2022/05/22 12:19:21;;;;;;;7.88;2.53;;;;;;;27.67;29.16;101540.19;5202916;28;20484;-51